CheckWX is a tool to help pilots better visualize weather data.  It is not intended as a substitute for an official pre-flight weather briefing.

03:34:19 UTC

KPOU TAF
Hudson Valley Regional Airport
Poughkeepsie, New York, USA
KPOU 282342Z 2900/2924 27005KT P6SM FEW060 FM290400 VRB04KT P6SM SCT060 BKN150 FM291200 26008KT P6SM BKN045 FM292000 29011G20KT P6SM BKN050

Feb-29@
00:00 UTC

Feb-29 @ 00:00 UTC

Feb-29@
04:00 UTC

Feb-29 @ 04:00 UTC

KPOU 282342Z 2900/2924 27005KT P6SM FEW060
Wind
  • 270° at 5 KTS
Cloud Levels
  • Few at 6,000' AGL

Feb-29@
04:00 UTC

Feb-29 @ 04:00 UTC

Feb-29@
12:00 UTC

Feb-29 @ 12:00 UTC

FM290400 VRB04KT P6SM SCT060 BKN150

From

From Standard forecast or significant change

Wind
  • Variable at 4 KTS
Cloud Levels
  • Scattered at 6,000' AGL
  • Broken at 15,000' AGL

Feb-29@
12:00 UTC

Feb-29 @ 12:00 UTC

Feb-29@
20:00 UTC

Feb-29 @ 20:00 UTC

FM291200 26008KT P6SM BKN045

From

From Standard forecast or significant change

Wind
  • 260° at 8 KTS
Cloud Levels
  • Broken at 4,500' AGL

Feb-29@
20:00 UTC

Feb-29 @ 20:00 UTC

Mar-1@
00:00 UTC

Mar-1 @ 00:00 UTC

FM292000 29011G20KT P6SM BKN050

From

From Standard forecast or significant change

Wind
  • 290° at 11 KTS
  • {Gusting to 20 KTS
Cloud Levels
  • Broken at 5,000' AGL